Tanner Field, CO

9:56 AM MDT on April 23, 2017 (GMT -0600)
East Lewis | | Change Station
Active Advisory: Fire Weather Warning

Elev 6909 ft 37.52 °N, 108.63 °W | Updated 11 minutes ago

Clear
Clear
58.6 °F
Feels Like 58.6 °F
N
2.0
Wind Variable Wind from East
Gusts 6.0 mph

Today
High -- | Low -- °F
--% Chance of Precip.
Yesterday
High -- | Low -- °F
Precip. -- in
Pressure 29.97 in
Visibility 10.0 miles
Clouds Clear
Dew Point 33 °F
Humidity 38%
Rainfall 0.00 in
Snow Depth Not available.
6:28 AM 7:57 PM
Waning Crescent, 11% visible
METAR KCEZ 231553Z AUTO 17011G18KT 10SM CLR 16/M02 A3009 RMK AO2 SLP147 T01561017
Pressure 29.97 in
Visibility 10.0 miles
Clouds Clear
Dew Point 33 °F
Humidity 38%
Rainfall 0.00 in
Snow Depth Not available.
6:28 AM 7:57 PM
Waning Crescent, 11% visible
METAR KCEZ 231553Z AUTO 17011G18KT 10SM CLR 16/M02 A3009 RMK AO2 SLP147 T01561017

Get Your Daily Forecast Email!

Thanks for signing up!

Be on the lookout for a verification email in your inbox.

You'll start receiving severe weather alerts in your inbox..

×

10-Day Weather Forecast

Almanac

Astronomy

Apr. 23, 2017 Rise Set
Actual Time
Civil Twilight
Nautical Twilight
Astronomical Twilight
Moon
Length of Visible Light
Length of Day
Tomorrow will be .
, % of the Moon is Illuminated

Today's Extremes

State Highs State Lows

Community

WunderPhotos

WunderBlog® & News

Nearby

Air Quality

  Air Quality AQ Index Pollutant
Not available.

Snow Depth

Station Depth Elevation

Earthquake Activity

City Distance Mag. Time & Date
Minimum magnitude displayed is 2.5.

Coastal Water Temperatures

Place Temperature

Stations

Nearby Weather Stations

Station Location Temp. Windchill Dew Point Humidity Wind Precip. Elev Updated Type
                   

Watches & Warnings

Fire Weather Warning
Issued: 8:03 AM MDT Apr. 23, 2017 – National Weather Service

... Red flag warning remains in effect from 1 PM this afternoon to
8 PM MDT this evening for wind and low relative humidity for fire
weather zones 203, 207 and 290...

* affected area... in Colorado, fire weather zone 203 lower
Colorado River, fire weather zone 207 southwest Colorado lower
forecast area and fire weather zone 290 Paradox Valley
forecast area.

* Winds... southwest 10 to 20 mph with gusts up to 40 mph.

* Relative humidity... 10 to 15 percent.

* Impacts... critical fire weather conditions will develop this
afternoon and evening. Existing or new fires will be difficult
to control.

Precautionary/preparedness actions...

A red flag warning means that critical fire weather conditions
are either occurring now, or will shortly. A combination of
strong winds, low relative humidity, and warm temperatures can
contribute to extreme fire behavior.



For more information from the National Weather Service visit...
http://weather.Gov/gjt